createdAt,value
2019-03-24T00:00:14.552Z,28.20
2019-03-24T00:02:43.128Z,26.07
2019-03-24T00:05:11.771Z,25.93
2019-03-24T00:07:40.307Z,26.97
2019-03-24T00:10:09.142Z,26.97
2019-03-24T00:12:37.611Z,27.10
2019-03-24T00:15:09.724Z,27.43
2019-03-24T00:17:38.307Z,27.07
2019-03-24T00:20:10.013Z,28.93
2019-03-24T00:22:37.916Z,27.40
2019-03-24T00:25:08.021Z,27.53
2019-03-24T00:27:36.567Z,27.53
2019-03-24T00:30:08.999Z,28.33
2019-03-24T00:32:37.462Z,27.13
2019-03-24T00:35:07.394Z,27.10
2019-03-24T00:37:35.855Z,27.80
2019-03-24T00:40:06.512Z,26.93
2019-03-24T00:42:35.058Z,26.03
2019-03-24T00:45:05.375Z,26.77
2019-03-24T00:47:33.882Z,26.70
2019-03-24T00:50:02.916Z,27.00
2019-03-24T00:52:31.383Z,25.13
2019-03-24T00:55:00.051Z,26.17
2019-03-24T00:57:28.511Z,27.10
2019-03-24T00:59:57.015Z,27.50
2019-03-24T01:02:25.551Z,26.43
2019-03-24T01:04:54.150Z,25.90
2019-03-24T01:07:22.679Z,27.97
2019-03-24T01:09:51.146Z,26.93
2019-03-24T01:12:19.634Z,28.43
2019-03-24T01:14:48.098Z,30.67
2019-03-24T01:17:16.586Z,28.87
2019-03-24T01:19:45.118Z,28.90
2019-03-24T01:22:13.606Z,29.97
2019-03-24T01:24:42.071Z,34.43
2019-03-24T01:27:10.632Z,34.40
2019-03-24T01:29:39.167Z,34.63
2019-03-24T01:32:07.777Z,35.20
2019-03-24T01:34:36.339Z,36.37
2019-03-24T01:37:04.963Z,37.20
2019-03-24T01:39:33.454Z,38.43
2019-03-24T01:42:01.918Z,38.97
2019-03-24T01:44:30.487Z,39.07
2019-03-24T01:46:58.951Z,38.40
2019-03-24T01:49:27.513Z,36.90
2019-03-24T01:51:55.982Z,37.07
2019-03-24T01:54:24.478Z,35.77
2019-03-24T01:56:52.938Z,36.03
2019-03-24T01:59:21.480Z,36.73
2019-03-24T02:01:50.140Z,36.93
2019-03-24T02:04:18.647Z,35.67
2019-03-24T02:06:47.186Z,36.70
2019-03-24T02:09:15.852Z,39.73
2019-03-24T02:11:44.390Z,39.07
2019-03-24T02:14:12.878Z,38.33
2019-03-24T02:16:41.367Z,37.77
2019-03-24T02:19:09.858Z,39.83
2019-03-24T02:21:38.354Z,39.33
2019-03-24T02:24:06.883Z,38.27
2019-03-24T02:26:35.445Z,39.03
2019-03-24T02:29:04.306Z,38.00
2019-03-24T02:31:32.869Z,37.57
2019-03-24T02:34:01.429Z,37.47
2019-03-24T02:36:30.064Z,37.70
2019-03-24T02:38:58.710Z,38.03
2019-03-24T02:41:27.246Z,37.87
2019-03-24T02:43:55.706Z,35.97
2019-03-24T02:46:25.119Z,38.90
2019-03-24T02:48:53.819Z,37.90
2019-03-24T02:51:22.284Z,37.50
2019-03-24T02:53:50.921Z,36.97
2019-03-24T02:56:19.486Z,37.93
2019-03-24T02:58:47.999Z,37.67
2019-03-24T03:01:16.642Z,37.93
2019-03-24T03:03:45.215Z,39.40
2019-03-24T03:06:13.831Z,38.77
2019-03-24T03:08:42.467Z,40.23
2019-03-24T03:11:11.567Z,40.27
2019-03-24T03:13:40.156Z,37.43
2019-03-24T03:16:08.679Z,38.47
2019-03-24T03:18:39.752Z,38.23
2019-03-24T03:21:08.242Z,38.57
2019-03-24T03:23:36.783Z,40.00
2019-03-24T03:26:05.511Z,39.23
2019-03-24T03:28:33.983Z,40.13
2019-03-24T03:31:02.552Z,39.30
2019-03-24T03:33:31.126Z,36.87
2019-03-24T03:35:59.675Z,36.87
2019-03-24T03:38:28.213Z,37.50
2019-03-24T03:40:56.792Z,37.37
2019-03-24T03:43:25.333Z,41.20
2019-03-24T03:45:53.943Z,38.63
2019-03-24T03:48:22.531Z,39.60
2019-03-24T03:50:51.068Z,37.00
2019-03-24T03:53:19.636Z,39.23
2019-03-24T03:55:48.183Z,37.97
2019-03-24T03:58:16.750Z,39.40
2019-03-24T04:00:45.382Z,39.60
2019-03-24T04:03:13.881Z,35.77
2019-03-24T04:05:42.518Z,39.17
2019-03-24T04:08:11.088Z,38.97
2019-03-24T04:10:39.555Z,38.43
2019-03-24T04:13:08.022Z,39.00
2019-03-24T04:15:36.512Z,38.17
2019-03-24T04:18:05.219Z,37.67
2019-03-24T04:20:33.863Z,37.03
2019-03-24T04:23:02.423Z,37.03
2019-03-24T04:25:30.936Z,37.70
2019-03-24T04:27:59.575Z,37.23
2019-03-24T04:30:28.237Z,38.70
2019-03-24T04:32:56.806Z,38.00
2019-03-24T04:35:25.271Z,38.47
2019-03-24T04:37:53.767Z,38.10
2019-03-24T04:40:22.299Z,38.00
2019-03-24T04:42:50.794Z,38.17
2019-03-24T04:45:19.330Z,38.63
2019-03-24T04:47:47.829Z,39.37
2019-03-24T04:50:16.567Z,39.37
2019-03-24T04:52:45.179Z,41.13
2019-03-24T04:55:17.086Z,39.90
2019-03-24T04:57:45.575Z,39.50
2019-03-24T05:00:14.442Z,39.47
2019-03-24T05:02:43.016Z,40.50
2019-03-24T05:05:12.127Z,38.87
2019-03-24T05:07:41.183Z,34.97
2019-03-24T05:10:12.746Z,36.70
2019-03-24T05:12:41.231Z,36.63
2019-03-24T05:15:10.035Z,32.63
2019-03-24T05:17:38.508Z,31.67
2019-03-24T05:20:07.518Z,29.30
2019-03-24T05:22:35.982Z,28.77
2019-03-24T05:25:04.887Z,28.73
2019-03-24T05:27:33.473Z,29.10
2019-03-24T05:30:02.079Z,27.47
2019-03-24T05:32:30.574Z,29.37
2019-03-24T05:34:59.058Z,28.57
2019-03-24T05:37:27.690Z,31.67
2019-03-24T05:39:56.278Z,32.07
2019-03-24T05:42:24.846Z,33.73
2019-03-24T05:44:53.385Z,35.17
2019-03-24T05:47:22.047Z,34.97
2019-03-24T05:49:50.586Z,33.97
2019-03-24T05:52:19.081Z,36.37
2019-03-24T05:54:47.546Z,37.33
2019-03-24T05:57:16.031Z,37.50
2019-03-24T05:59:44.521Z,35.20
2019-03-24T06:02:12.999Z,34.60
2019-03-24T06:04:41.662Z,33.70
2019-03-24T06:07:10.204Z,34.13
2019-03-24T06:09:38.686Z,35.47
2019-03-24T06:12:07.227Z,34.40
2019-03-24T06:14:35.882Z,35.00
2019-03-24T06:17:04.411Z,33.37
2019-03-24T06:19:32.950Z,34.73
2019-03-24T06:22:01.455Z,33.47
2019-03-24T06:24:30.018Z,33.23
2019-03-24T06:26:58.506Z,34.57
2019-03-24T06:29:27.303Z,34.57
2019-03-24T06:31:55.799Z,33.60
2019-03-24T06:34:24.286Z,32.97
2019-03-24T06:36:52.778Z,32.40
2019-03-24T06:39:21.340Z,34.27
2019-03-24T06:41:49.879Z,32.03
2019-03-24T06:44:18.361Z,32.10
2019-03-24T06:46:46.903Z,31.17
2019-03-24T06:49:15.373Z,32.63
2019-03-24T06:51:43.942Z,33.23
2019-03-24T06:54:12.402Z,33.43
2019-03-24T06:56:40.963Z,33.60
2019-03-24T06:59:09.503Z,34.13
2019-03-24T07:01:38.074Z,31.53
2019-03-24T07:04:06.642Z,34.13
2019-03-24T07:06:35.178Z,34.43
2019-03-24T07:09:05.310Z,33.50
2019-03-24T07:11:33.887Z,34.00
2019-03-24T07:14:02.350Z,33.10
2019-03-24T07:16:30.859Z,33.30
2019-03-24T07:18:59.319Z,35.83
2019-03-24T07:21:27.788Z,33.70
2019-03-24T07:23:56.606Z,33.37
2019-03-24T07:26:25.207Z,33.97
2019-03-24T07:28:53.785Z,34.20
2019-03-24T07:31:22.251Z,34.30
2019-03-24T07:33:50.718Z,33.27
2019-03-24T07:36:19.214Z,34.33
2019-03-24T07:38:47.747Z,33.97
2019-03-24T07:41:16.266Z,33.10
2019-03-24T07:43:44.738Z,34.30
2019-03-24T07:46:13.252Z,34.20
2019-03-24T07:48:41.714Z,33.73
2019-03-24T07:51:10.261Z,33.83
2019-03-24T07:53:38.826Z,32.60
2019-03-24T07:56:07.368Z,31.80
2019-03-24T07:58:35.906Z,32.23
2019-03-24T08:01:04.404Z,32.63
2019-03-24T08:03:32.970Z,32.83
2019-03-24T08:06:01.474Z,33.30
2019-03-24T08:08:29.942Z,32.00
2019-03-24T08:10:58.411Z,32.80
2019-03-24T08:13:26.975Z,32.17
2019-03-24T08:15:55.511Z,32.80
2019-03-24T08:18:30.014Z,31.40
2019-03-24T08:20:54.273Z,32.00
2019-03-24T08:23:22.811Z,32.13
2019-03-24T08:25:51.294Z,30.30
2019-03-24T08:28:19.766Z,31.43
2019-03-24T08:30:48.278Z,32.83
2019-03-24T08:33:16.767Z,31.67
2019-03-24T08:35:45.507Z,31.97
2019-03-24T08:38:14.242Z,31.30
2019-03-24T08:40:42.794Z,32.20
2019-03-24T08:43:11.327Z,31.57
2019-03-24T08:45:39.814Z,32.07
2019-03-24T08:48:08.354Z,31.80
2019-03-24T08:50:36.846Z,30.60
2019-03-24T08:53:05.451Z,33.03
2019-03-24T08:55:34.018Z,31.83
2019-03-24T08:58:02.486Z,31.37
2019-03-24T09:00:31.210Z,31.70
2019-03-24T09:02:59.727Z,29.87
2019-03-24T09:05:28.302Z,29.37
2019-03-24T09:07:56.949Z,29.70
2019-03-24T09:10:25.418Z,28.73
2019-03-24T09:12:53.987Z,29.70
2019-03-24T09:15:22.519Z,28.70
2019-03-24T09:17:51.118Z,30.40
2019-03-24T09:20:19.710Z,27.57
2019-03-24T09:22:48.180Z,25.67
2019-03-24T09:25:16.833Z,24.80
2019-03-24T09:27:45.393Z,23.23
2019-03-24T09:30:22.623Z,24.23
2019-03-24T09:32:51.187Z,23.73
2019-03-24T09:35:19.678Z,24.37
2019-03-24T09:37:48.176Z,24.87
2019-03-24T09:40:19.799Z,24.07
2019-03-24T09:42:48.378Z,23.83
2019-03-24T09:45:16.870Z,24.17
2019-03-24T09:47:45.349Z,23.07
2019-03-24T09:50:13.982Z,25.07
2019-03-24T09:52:42.458Z,26.43
2019-03-24T09:55:10.950Z,30.47
2019-03-24T09:57:39.427Z,28.77
2019-03-24T10:00:08.338Z,26.73
2019-03-24T10:02:36.810Z,27.47
2019-03-24T10:05:06.423Z,24.90
2019-03-24T10:07:34.967Z,25.13
2019-03-24T10:10:06.838Z,22.57
2019-03-24T10:12:35.375Z,23.97
2019-03-24T10:15:05.779Z,24.27
2019-03-24T10:17:34.252Z,24.60
2019-03-24T10:20:02.859Z,24.77
2019-03-24T10:22:31.358Z,25.00
2019-03-24T10:24:59.847Z,24.67
2019-03-24T10:27:28.351Z,23.70
2019-03-24T10:29:56.907Z,24.07
2019-03-24T10:32:25.480Z,24.53
2019-03-24T10:34:54.023Z,24.13
2019-03-24T10:37:22.593Z,25.53
2019-03-24T10:39:51.134Z,24.67
2019-03-24T10:42:19.694Z,24.37
2019-03-24T10:44:48.265Z,24.13
2019-03-24T10:47:16.755Z,24.37
2019-03-24T10:49:45.250Z,22.80
2019-03-24T10:52:13.747Z,24.47
2019-03-24T10:54:42.335Z,27.00
2019-03-24T10:57:10.815Z,25.57
2019-03-24T10:59:40.313Z,25.32
2019-03-24T11:02:08.858Z,26.90
2019-03-24T11:04:37.474Z,26.30
2019-03-24T11:07:06.071Z,25.30
2019-03-24T11:09:34.578Z,26.15
2019-03-24T11:12:03.050Z,25.08
2019-03-24T11:14:31.526Z,24.67
2019-03-24T11:17:00.098Z,25.88
2019-03-24T11:19:35.649Z,27.42
2019-03-24T11:21:58.802Z,26.00
2019-03-24T11:24:27.285Z,26.10
2019-03-24T11:26:55.827Z,25.80
2019-03-24T11:29:24.398Z,26.35
2019-03-24T11:31:52.902Z,25.43
2019-03-24T11:34:21.374Z,26.25
2019-03-24T11:36:49.866Z,28.00
2019-03-24T11:39:18.347Z,25.40
2019-03-24T11:41:46.863Z,26.90
2019-03-24T11:44:15.676Z,26.20
2019-03-24T11:46:44.220Z,28.32
2019-03-24T11:49:19.806Z,27.13
2019-03-24T11:51:48.348Z,26.60
2019-03-24T11:54:16.910Z,27.10
2019-03-24T11:56:45.550Z,25.83
2019-03-24T11:59:14.183Z,25.43
2019-03-24T12:01:42.751Z,26.67
2019-03-24T12:04:11.251Z,27.93
2019-03-24T12:06:39.735Z,32.83
2019-03-24T12:09:08.303Z,27.50
2019-03-24T12:11:36.844Z,25.90
2019-03-24T12:14:05.683Z,25.63
2019-03-24T12:16:34.351Z,24.30
2019-03-24T12:19:02.923Z,24.00
2019-03-24T12:21:31.467Z,21.30
2019-03-24T12:23:59.940Z,20.63
2019-03-24T12:26:28.559Z,22.60
2019-03-24T12:28:57.031Z,22.13
2019-03-24T12:31:25.502Z,22.40
2019-03-24T12:33:54.010Z,21.13
2019-03-24T12:36:22.479Z,17.40
2019-03-24T12:38:50.959Z,17.47
2019-03-24T12:41:19.451Z,17.93
2019-03-24T12:43:48.086Z,19.13
2019-03-24T12:46:16.594Z,18.83
2019-03-24T12:48:45.065Z,19.67
2019-03-24T12:51:13.546Z,19.63
2019-03-24T12:53:42.193Z,20.23
2019-03-24T12:56:10.656Z,20.00
2019-03-24T12:58:39.154Z,20.73
2019-03-24T13:01:07.838Z,19.87
2019-03-24T13:03:36.413Z,19.67
2019-03-24T13:06:07.803Z,20.40
2019-03-24T13:08:36.297Z,20.73
2019-03-24T13:11:04.838Z,21.87
2019-03-24T13:13:33.407Z,20.37
2019-03-24T13:16:01.952Z,21.30
2019-03-24T13:18:30.517Z,20.67
2019-03-24T13:20:59.015Z,20.80
2019-03-24T13:23:27.583Z,23.67
2019-03-24T13:25:56.114Z,19.07
2019-03-24T13:28:24.603Z,19.17
2019-03-24T13:30:53.163Z,19.70
2019-03-24T13:33:21.781Z,20.93
2019-03-24T13:35:52.050Z,20.17
2019-03-24T13:38:20.750Z,20.27
2019-03-24T13:40:49.320Z,19.23
2019-03-24T13:43:17.862Z,20.07
2019-03-24T13:45:46.570Z,18.80
2019-03-24T13:48:15.066Z,18.53
2019-03-24T13:50:43.615Z,19.37
2019-03-24T13:53:12.191Z,19.33
2019-03-24T13:55:40.734Z,18.73
2019-03-24T13:58:11.970Z,19.83
2019-03-24T14:00:39.970Z,20.10
2019-03-24T14:03:08.619Z,19.87
2019-03-24T14:05:37.150Z,18.23
2019-03-24T14:08:05.723Z,21.27
2019-03-24T14:10:34.190Z,20.40
2019-03-24T14:13:02.756Z,18.93
2019-03-24T14:15:31.233Z,20.03
2019-03-24T14:17:59.882Z,19.80
2019-03-24T14:20:28.454Z,18.77
2019-03-24T14:22:57.032Z,19.77
2019-03-24T14:25:25.659Z,19.23
2019-03-24T14:27:54.130Z,19.17
2019-03-24T14:30:28.352Z,18.67
2019-03-24T14:32:56.916Z,16.87
2019-03-24T14:35:25.423Z,16.47
2019-03-24T14:37:53.968Z,16.47
2019-03-24T14:40:22.514Z,17.57
2019-03-24T14:42:51.014Z,17.67
2019-03-24T14:45:19.555Z,17.20
2019-03-24T14:47:48.127Z,16.63
2019-03-24T14:50:17.358Z,17.90
2019-03-24T14:52:45.927Z,17.23
2019-03-24T14:55:14.490Z,16.37
2019-03-24T14:57:43.190Z,15.97
2019-03-24T15:00:11.998Z,14.50
2019-03-24T15:02:41.004Z,13.53
2019-03-24T15:05:10.014Z,12.63
2019-03-24T15:07:38.539Z,12.33
2019-03-24T15:10:07.450Z,12.43
2019-03-24T15:12:35.946Z,12.40
2019-03-24T15:15:07.409Z,11.87
2019-03-24T15:17:36.198Z,10.27
2019-03-24T15:20:07.002Z,11.33
2019-03-24T15:22:35.574Z,11.50
2019-03-24T15:25:05.075Z,11.07
2019-03-24T15:27:33.568Z,10.93
2019-03-24T15:30:02.143Z,12.03
2019-03-24T15:32:30.694Z,12.03
2019-03-24T15:34:59.195Z,11.37
2019-03-24T15:37:27.783Z,12.73
2019-03-24T15:39:56.255Z,11.37
2019-03-24T15:42:25.039Z,11.83
2019-03-24T15:44:53.626Z,12.00
2019-03-24T15:47:22.253Z,11.33
2019-03-24T15:49:50.795Z,11.90
2019-03-24T15:52:19.451Z,11.30
2019-03-24T15:54:47.997Z,10.97
2019-03-24T15:57:16.581Z,10.70
2019-03-24T15:59:47.550Z,10.10
2019-03-24T16:02:15.607Z,10.87
2019-03-24T16:04:44.244Z,10.33
2019-03-24T16:07:12.719Z,9.77
2019-03-24T16:09:41.206Z,9.53
2019-03-24T16:12:09.840Z,9.70
2019-03-24T16:14:38.451Z,9.77
2019-03-24T16:17:07.122Z,8.40
2019-03-24T16:19:35.683Z,8.20
2019-03-24T16:22:04.283Z,9.10
2019-03-24T16:24:32.779Z,8.77
2019-03-24T16:27:01.342Z,7.87
2019-03-24T16:29:29.906Z,8.80
2019-03-24T16:31:58.500Z,9.70
2019-03-24T16:34:27.059Z,8.90
2019-03-24T16:36:55.550Z,9.27
2019-03-24T16:39:24.018Z,9.07
2019-03-24T16:41:52.531Z,9.03
2019-03-24T16:44:21.101Z,9.20
2019-03-24T16:46:49.674Z,11.43
2019-03-24T16:49:18.303Z,9.17
2019-03-24T16:51:46.807Z,9.37
2019-03-24T16:54:15.358Z,9.13
2019-03-24T16:56:43.872Z,8.67
2019-03-24T16:59:12.449Z,8.77
2019-03-24T17:01:40.965Z,9.70
2019-03-24T17:04:09.550Z,11.80
2019-03-24T17:06:38.019Z,9.43
2019-03-24T17:09:07.130Z,10.43
2019-03-24T17:11:35.622Z,8.83
2019-03-24T17:14:04.250Z,9.80
2019-03-24T17:16:32.779Z,11.87
2019-03-24T17:19:01.343Z,11.00
2019-03-24T17:21:29.834Z,10.43
2019-03-24T17:23:58.310Z,11.73
2019-03-24T17:26:26.940Z,12.03
2019-03-24T17:28:55.415Z,14.47
2019-03-24T17:31:23.916Z,12.63
2019-03-24T17:33:52.390Z,13.37
2019-03-24T17:36:20.886Z,14.00
2019-03-24T17:38:49.354Z,15.80
2019-03-24T17:41:17.827Z,15.07
2019-03-24T17:43:46.391Z,15.93
2019-03-24T17:46:15.062Z,15.53
2019-03-24T17:48:43.598Z,15.57
2019-03-24T17:51:12.074Z,15.97
2019-03-24T17:53:40.601Z,17.27
2019-03-24T17:56:09.210Z,19.07
2019-03-24T17:58:37.703Z,20.43
2019-03-24T18:01:06.271Z,20.60
2019-03-24T18:03:34.762Z,20.83
2019-03-24T18:06:03.234Z,21.90
2019-03-24T18:08:31.795Z,23.27
2019-03-24T18:11:00.270Z,21.90
2019-03-24T18:13:28.835Z,22.17
2019-03-24T18:15:57.362Z,22.43
2019-03-24T18:18:25.910Z,21.77
2019-03-24T18:20:54.479Z,23.07
2019-03-24T18:23:23.132Z,21.90
2019-03-24T18:25:51.677Z,22.40
2019-03-24T18:28:20.286Z,22.50
2019-03-24T18:30:48.990Z,22.77
2019-03-24T18:33:17.525Z,22.73
2019-03-24T18:35:46.098Z,21.57
2019-03-24T18:38:14.573Z,22.43
2019-03-24T18:40:43.042Z,23.47
2019-03-24T18:43:11.539Z,23.47
2019-03-24T18:45:40.003Z,24.10
2019-03-24T18:48:08.575Z,22.33
2019-03-24T18:50:37.064Z,22.30
2019-03-24T18:53:05.775Z,21.23
2019-03-24T18:55:34.333Z,22.37
2019-03-24T18:58:02.943Z,21.30
2019-03-24T19:00:31.506Z,20.63
2019-03-24T19:02:59.980Z,22.20
2019-03-24T19:05:28.550Z,19.33
2019-03-24T19:07:57.107Z,18.67
2019-03-24T19:10:25.595Z,17.23
2019-03-24T19:12:54.290Z,16.27
2019-03-24T19:15:23.150Z,15.50
2019-03-24T19:17:51.639Z,19.87
2019-03-24T19:20:20.521Z,14.97
2019-03-24T19:22:49.024Z,14.27
2019-03-24T19:25:17.632Z,13.93
2019-03-24T19:27:46.207Z,13.23
2019-03-24T19:30:16.942Z,14.10
2019-03-24T19:32:45.499Z,13.63
2019-03-24T19:35:14.310Z,13.93
2019-03-24T19:37:44.921Z,13.10
2019-03-24T19:40:26.476Z,12.03
2019-03-24T19:42:55.331Z,12.07
2019-03-24T19:45:24.008Z,11.07
2019-03-24T19:47:53.082Z,11.60
2019-03-24T19:50:21.583Z,11.70
2019-03-24T19:52:50.191Z,13.40
2019-03-24T19:55:18.784Z,15.03
2019-03-24T19:57:47.478Z,14.57
2019-03-24T20:00:16.311Z,13.57
2019-03-24T20:02:44.870Z,10.33
2019-03-24T20:05:13.530Z,9.53
2019-03-24T20:07:47.891Z,9.53
2019-03-24T20:10:12.527Z,10.97
2019-03-24T20:12:42.090Z,10.03
2019-03-24T20:15:11.050Z,8.73
2019-03-24T20:17:39.599Z,7.97
2019-03-24T20:20:08.507Z,9.20
2019-03-24T20:22:37.137Z,8.27
2019-03-24T20:25:07.311Z,7.93
2019-03-24T20:27:35.868Z,7.43
2019-03-24T20:30:07.546Z,6.47
2019-03-24T20:32:36.035Z,6.30
2019-03-24T20:35:06.094Z,6.57
2019-03-24T20:37:35.095Z,6.80
2019-03-24T20:40:05.020Z,7.00
2019-03-24T20:42:33.626Z,6.10
2019-03-24T20:45:02.089Z,6.47
2019-03-24T20:47:30.655Z,6.50
2019-03-24T20:49:59.146Z,6.37
2019-03-24T20:52:27.678Z,6.40
2019-03-24T20:54:56.164Z,7.43
2019-03-24T20:57:24.627Z,6.83
2019-03-24T20:59:53.188Z,7.00
2019-03-24T21:02:21.719Z,6.60
2019-03-24T21:04:50.220Z,6.50
2019-03-24T21:07:18.875Z,9.07
2019-03-24T21:09:47.365Z,5.57
2019-03-24T21:12:16.024Z,6.77
2019-03-24T21:14:44.584Z,6.30
2019-03-24T21:17:13.122Z,5.47
2019-03-24T21:19:41.674Z,6.23
2019-03-24T21:22:10.134Z,5.00
2019-03-24T21:24:38.605Z,5.03
2019-03-24T21:27:07.401Z,5.70
2019-03-24T21:29:35.982Z,5.87
2019-03-24T21:32:04.607Z,5.30
2019-03-24T21:34:33.074Z,5.87
2019-03-24T21:37:02.127Z,5.67
2019-03-24T21:39:30.673Z,5.70
2019-03-24T21:41:59.202Z,7.30
2019-03-24T21:44:27.697Z,7.83
2019-03-24T21:46:56.258Z,5.77
2019-03-24T21:49:24.975Z,6.13
2019-03-24T21:51:53.514Z,7.73
2019-03-24T21:54:21.999Z,5.70
2019-03-24T21:56:50.610Z,7.80
2019-03-24T21:59:19.098Z,6.20
2019-03-24T22:01:47.635Z,6.40
2019-03-24T22:04:16.126Z,4.60
2019-03-24T22:06:44.705Z,4.80
2019-03-24T22:09:13.230Z,4.57
2019-03-24T22:11:41.766Z,5.40
2019-03-24T22:14:10.278Z,4.63
2019-03-24T22:16:38.803Z,5.00
2019-03-24T22:19:07.444Z,3.77
2019-03-24T22:21:35.928Z,4.40
2019-03-24T22:24:04.459Z,6.30
2019-03-24T22:26:32.963Z,4.93
2019-03-24T22:29:01.428Z,4.00
2019-03-24T22:31:29.982Z,3.53
2019-03-24T22:33:58.555Z,3.40
2019-03-24T22:36:27.098Z,3.97
2019-03-24T22:38:55.728Z,3.77
2019-03-24T22:41:24.214Z,3.30
2019-03-24T22:43:52.770Z,3.20
2019-03-24T22:46:21.226Z,2.97
2019-03-24T22:48:49.875Z,3.37
2019-03-24T22:51:18.398Z,3.43
2019-03-24T22:53:46.894Z,3.30
2019-03-24T22:56:15.426Z,3.20
2019-03-24T22:58:43.954Z,2.90
2019-03-24T23:01:14.481Z,3.20
2019-03-24T23:03:43.030Z,2.97
2019-03-24T23:06:11.586Z,3.07
2019-03-24T23:08:40.382Z,3.40
2019-03-24T23:11:08.848Z,3.10
2019-03-24T23:13:37.342Z,2.97
2019-03-24T23:16:05.834Z,3.33
2019-03-24T23:18:34.454Z,2.50
2019-03-24T23:21:03.610Z,2.50
2019-03-24T23:23:32.062Z,3.10
2019-03-24T23:26:00.560Z,2.83
2019-03-24T23:28:29.090Z,2.57
2019-03-24T23:30:57.686Z,2.70
2019-03-24T23:33:26.250Z,2.60
2019-03-24T23:35:54.710Z,2.63
2019-03-24T23:38:23.751Z,2.77
2019-03-24T23:40:52.582Z,3.13
2019-03-24T23:43:21.114Z,2.80
2019-03-24T23:45:49.662Z,2.20
2019-03-24T23:48:18.123Z,3.50
2019-03-24T23:50:46.611Z,5.93
2019-03-24T23:53:15.071Z,2.60
2019-03-24T23:55:43.557Z,4.13
2019-03-24T23:58:12.090Z,2.60
